Kezdőlap
METAR-TAF:

METAR-TAF

Repülőterek :

Vadsø, Norvégia

földrajzi szélesség: 70-04N, földrajzi hosszúság: 029-51E, magasság: 3 m

Jelenlegi meteorológiai megfigyelések

A jelentés 3 órával és 56 perccel ezelõtt készült, 23:20 UTC
Észak-északkeleti szél 18 kt
Hőmérséklet -5°C
Páratartalom 79%
Légköri nyomás 1005 hPa
Látótávolság 10 km, vagy több
Kevés felhő 1200 lábon
Szórványos felhőzet 3000 lábon

METAR: ENVD 222320Z 02018KT 9999 FEW012 SCT030 M05/M08 Q1005

Idő: 04:16 (03:16 UTC)

Előrejelzés

A jelentés 7 órával és 16 perccel ezelõtt készült, 20:00 UTC
Az előrejelzés 22-én 21 óra UTC és 22-én 24 óra UTC között érvényes
Észak-északkeleti szél 18 kt
Látótávolság 10 km, vagy több
Kevés felhő 1500 lábon, Cumulonimbus.
Szakadozott felhőzet 3000 lábon
22-én 21 óra UTC és 22-én 24 óra UTC között ideiglenes
Látótávolság: 2000 m
800 lábon
hózápor

TAF: ENVD 222000Z 2221/2224 02018KT 9999 FEW015CB BKN030 TEMPO 2221/2224 2000 SHSN VV008

Meteorológiai megfigyelések és előrejelzések több, mint 4000 repülőtéren (METAR és TAF jelentéseket).

A térképen piros és sárga pontok jelzik az elérhető meteorológiai állomásokat.

Mozgassa az egeret a pont fölött, hogy megjelenjen az állomás neve.

Azután kattintson az időjárási megfigyelések és előrejelzések megtekintéséhez.

A térkép megváltoztatása: kattintson a fekete keresztel jelölt zöld gombra ráközelítéshez, a vonallal jelölt zöld gombra távolításhoz, vagy a zöld nyilakra a szomszédos térképek eléréséhez.


METAR-TAF: